Time;durP1;ratioP1;P1;durP2;ratioP2;P2;SDS_P1;SDS_P2;PMS_P1;PMS_P2;Temp;Humidity;BMP_temperature;BMP_pressure;BME280_temperature;BME280_humidity;BME280_pressure;Samples;Min_cycle;Max_cycle;Signal;HPM_P1;HPM_P2
2024/01/22 00:01:35;;;;;;;9.20;6.63;;;6.80;99.90;;;;;;5094201;28;20669;-61
2024/01/22 00:04:00;;;;;;;8.43;6.40;;;6.80;99.90;;;;;;5093834;28;20197;-60
2024/01/22 00:06:26;;;;;;;7.77;6.50;;;6.90;99.90;;;;;;5093494;28;20188;-61
2024/01/22 00:08:52;;;;;;;7.03;6.33;;;6.90;99.90;;;;;;5094701;28;20173;-62
2024/01/22 00:11:17;;;;;;;12.00;6.57;;;6.90;99.90;;;;;;5093765;28;20641;-60
2024/01/22 00:13:44;;;;;;;7.07;6.47;;;6.90;99.90;;;;;;5112611;28;20680;-62
2024/01/22 00:16:11;;;;;;;6.80;5.90;;;6.90;99.90;;;;;;5104534;28;20192;-62
2024/01/22 00:18:37;;;;;;;7.67;6.50;;;7.00;99.90;;;;;;5105664;28;20722;-61
2024/01/22 00:21:03;;;;;;;6.97;6.23;;;6.90;99.90;;;;;;5099267;28;20181;-61
2024/01/22 00:23:29;;;;;;;6.93;6.13;;;7.00;99.90;;;;;;5104985;28;20547;-62
2024/01/22 00:25:54;;;;;;;9.97;7.33;;;7.10;99.90;;;;;;5113863;28;20549;-61
2024/01/22 00:28:20;;;;;;;9.50;6.40;;;7.10;99.90;;;;;;5112213;28;20610;-61
2024/01/22 00:30:46;;;;;;;9.23;6.30;;;7.10;99.90;;;;;;5105541;28;20179;-61
2024/01/22 00:33:12;;;;;;;8.87;6.60;;;7.10;99.90;;;;;;5113640;28;20584;-61
2024/01/22 00:35:38;;;;;;;9.30;6.47;;;7.10;99.90;;;;;;5098342;28;20603;-61
2024/01/22 00:38:03;;;;;;;8.90;6.13;;;7.10;99.90;;;;;;5099252;28;20250;-62
2024/01/22 00:40:29;;;;;;;7.47;6.60;;;7.10;99.90;;;;;;5113949;28;20178;-62
2024/01/22 00:42:55;;;;;;;6.67;6.00;;;7.10;99.90;;;;;;5114275;28;20197;-61
2024/01/22 00:45:21;;;;;;;9.07;6.40;;;7.10;99.90;;;;;;5110991;28;20176;-61
2024/01/22 00:47:46;;;;;;;13.23;7.03;;;7.00;99.90;;;;;;5100839;28;20325;-62
2024/01/22 00:50:12;;;;;;;10.27;6.63;;;7.10;99.90;;;;;;5112127;28;20220;-61
2024/01/22 00:52:38;;;;;;;6.87;6.27;;;7.00;99.90;;;;;;5112837;28;20177;-62
2024/01/22 00:55:04;;;;;;;6.60;6.00;;;7.00;99.90;;;;;;5096187;28;20595;-61
2024/01/22 00:57:30;;;;;;;8.70;6.47;;;7.10;99.90;;;;;;5102079;28;20200;-61
2024/01/22 00:59:55;;;;;;;7.10;6.50;;;7.00;99.90;;;;;;5100192;28;20188;-61
2024/01/22 01:02:21;;;;;;;6.43;5.83;;;7.10;99.90;;;;;;5114478;28;20283;-61
2024/01/22 01:04:47;;;;;;;8.77;5.87;;;7.20;99.90;;;;;;5109279;28;20181;-61
2024/01/22 01:07:13;;;;;;;10.53;6.10;;;7.10;99.90;;;;;;5096827;28;20674;-62
2024/01/22 01:09:38;;;;;;;7.33;6.60;;;7.20;99.90;;;;;;5111647;28;20172;-61
2024/01/22 01:12:05;;;;;;;7.17;5.87;;;7.30;99.90;;;;;;5115713;28;20177;-62
2024/01/22 01:14:30;;;;;;;6.10;5.60;;;7.30;99.90;;;;;;5117533;28;20169;-61
2024/01/22 01:16:56;;;;;;;6.87;6.17;;;7.30;99.90;;;;;;5114764;28;20703;-61
2024/01/22 01:19:22;;;;;;;7.87;6.07;;;7.30;99.90;;;;;;5104772;28;20256;-61
2024/01/22 01:21:47;;;;;;;7.60;5.90;;;7.30;99.90;;;;;;5096566;28;20264;-60
2024/01/22 01:24:13;;;;;;;6.67;5.63;;;7.30;99.90;;;;;;5112901;28;20211;-61
2024/01/22 01:26:43;;;;;;;7.50;6.13;;;7.30;99.90;;;;;;5111655;28;20589;-62
2024/01/22 01:29:09;;;;;;;8.37;6.03;;;7.20;99.90;;;;;;5107793;28;20184;-62
2024/01/22 01:31:35;;;;;;;7.47;6.07;;;7.30;99.90;;;;;;5096306;28;20685;-61
2024/01/22 01:34:01;;;;;;;8.67;6.23;;;7.30;99.90;;;;;;5096051;28;20177;-62
2024/01/22 01:36:27;;;;;;;6.97;5.87;;;7.40;99.90;;;;;;5096123;28;20185;-61
2024/01/22 01:38:53;;;;;;;6.83;5.53;;;7.40;99.90;;;;;;5097108;28;20191;-62
2024/01/22 01:41:19;;;;;;;9.60;6.00;;;7.50;99.90;;;;;;5095943;28;20661;-61
2024/01/22 01:43:44;;;;;;;7.03;6.33;;;7.50;99.90;;;;;;5099960;28;20223;-61
2024/01/22 01:46:10;;;;;;;6.53;5.87;;;7.50;99.90;;;;;;5110354;28;20203;-61
2024/01/22 01:48:38;;;;;;;7.20;6.40;;;7.50;99.90;;;;;;5097691;28;20205;-61
2024/01/22 01:51:04;;;;;;;6.67;5.97;;;7.50;99.90;;;;;;5098744;28;20237;-62
2024/01/22 01:53:32;;;;;;;6.73;5.73;;;7.60;99.90;;;;;;5114158;28;20185;-61
2024/01/22 01:56:00;;;;;;;5.87;5.40;;;7.60;99.90;;;;;;5111375;28;20197;-63
2024/01/22 01:58:26;;;;;;;7.00;6.03;;;7.60;99.90;;;;;;5094382;28;20201;-62
2024/01/22 02:00:56;;;;;;;6.60;5.80;;;7.70;99.90;;;;;;5097384;28;20684;-61
2024/01/22 02:03:22;;;;;;;7.27;5.87;;;7.80;99.90;;;;;;5116005;28;20196;-61
2024/01/22 02:05:48;;;;;;;5.67;5.17;;;7.70;99.90;;;;;;5114451;28;20185;-61
2024/01/22 02:08:14;;;;;;;6.53;5.70;;;7.80;99.90;;;;;;5099861;28;20291;-61
2024/01/22 02:10:40;;;;;;;6.03;5.37;;;7.90;99.90;;;;;;5115958;28;20173;-61
2024/01/22 02:13:09;;;;;;;6.20;5.60;;;7.80;99.90;;;;;;5114258;28;20173;-62
2024/01/22 02:15:34;;;;;;;6.43;5.80;;;7.80;99.90;;;;;;5112791;28;20177;-61
2024/01/22 02:18:01;;;;;;;5.67;5.10;;;7.90;99.90;;;;;;5095323;28;20315;-62
2024/01/22 02:20:27;;;;;;;6.23;5.57;;;7.90;99.90;;;;;;5095505;28;20626;-62
2024/01/22 02:22:53;;;;;;;6.07;5.43;;;8.00;99.90;;;;;;5100436;28;20265;-61
2024/01/22 02:25:19;;;;;;;5.90;5.40;;;8.00;99.90;;;;;;5115390;28;20585;-63
2024/01/22 02:27:45;;;;;;;7.30;5.90;;;8.00;99.90;;;;;;5098633;28;20196;-61
2024/01/22 02:30:11;;;;;;;10.50;5.23;;;7.90;99.90;;;;;;5099417;28;20272;-62
2024/01/22 02:32:37;;;;;;;6.37;5.20;;;7.90;99.90;;;;;;5115003;28;20259;-62
2024/01/22 02:35:03;;;;;;;5.77;5.27;;;7.90;99.90;;;;;;5115633;28;20229;-61
2024/01/22 02:37:29;;;;;;;6.27;5.63;;;7.90;99.90;;;;;;5113908;28;20257;-61
2024/01/22 02:39:55;;;;;;;5.97;5.07;;;7.90;99.90;;;;;;5114830;28;20184;-61
2024/01/22 02:42:20;;;;;;;5.27;4.87;;;7.80;99.90;;;;;;5102706;28;20211;-61
2024/01/22 02:44:46;;;;;;;5.70;5.20;;;7.90;99.90;;;;;;5095104;28;20192;-62
2024/01/22 02:47:12;;;;;;;5.50;5.00;;;7.90;99.90;;;;;;5108482;28;20202;-60
2024/01/22 02:49:38;;;;;;;7.60;4.90;;;7.90;99.90;;;;;;5115532;28;20318;-62
2024/01/22 02:52:04;;;;;;;7.57;5.30;;;7.90;99.90;;;;;;5107056;28;20264;-62
2024/01/22 02:54:30;;;;;;;5.20;4.80;;;7.90;99.90;;;;;;5094189;28;20196;-61
2024/01/22 02:56:55;;;;;;;6.07;5.00;;;7.90;99.90;;;;;;5094719;28;20657;-61
2024/01/22 02:59:21;;;;;;;5.60;5.10;;;8.00;99.90;;;;;;5094516;28;20180;-61
2024/01/22 03:01:47;;;;;;;9.17;5.20;;;7.90;99.90;;;;;;5101316;28;20184;-61
2024/01/22 03:04:13;;;;;;;6.93;4.87;;;7.90;99.90;;;;;;5111527;28;20204;-63
2024/01/22 03:06:38;;;;;;;4.97;4.67;;;8.00;99.90;;;;;;5111816;28;20181;-62
2024/01/22 03:09:05;;;;;;;5.07;4.70;;;8.10;99.90;;;;;;5094570;28;20345;-62
2024/01/22 03:11:31;;;;;;;5.30;4.90;;;8.10;99.90;;;;;;5111371;28;20183;-62
2024/01/22 03:13:56;;;;;;;5.27;4.80;;;8.10;99.90;;;;;;5094138;28;20177;-63
2024/01/22 03:16:22;;;;;;;5.90;5.00;;;8.10;99.90;;;;;;5104090;28;20625;-63
2024/01/22 03:18:49;;;;;;;5.30;4.80;;;8.10;99.90;;;;;;5114295;28;20736;-62
2024/01/22 03:21:15;;;;;;;5.53;5.00;;;8.20;99.90;;;;;;5111915;28;20237;-62
2024/01/22 03:23:43;;;;;;;6.73;5.10;;;8.20;99.90;;;;;;5094414;28;20205;-62
2024/01/22 03:26:17;;;;;;;5.10;4.70;;;8.30;99.90;;;;;;5093916;28;20631;-62
2024/01/22 03:28:43;;;;;;;5.33;4.90;;;8.40;99.90;;;;;;5093921;28;20204;-62
2024/01/22 03:31:26;;;;;;;5.30;4.80;;;8.40;99.90;;;;;;5100238;28;20177;-60
2024/01/22 03:33:53;;;;;;;5.23;4.83;;;8.40;99.90;;;;;;5114720;28;20218;-62
2024/01/22 03:36:19;;;;;;;5.33;4.80;;;8.40;99.90;;;;;;5113606;28;20205;-62
2024/01/22 03:38:45;;;;;;;5.70;5.10;;;8.40;99.90;;;;;;5111026;28;20203;-62
2024/01/22 03:41:12;;;;;;;4.90;4.60;;;8.40;99.90;;;;;;5112993;28;20207;-62
2024/01/22 03:43:37;;;;;;;6.43;4.47;;;8.40;99.90;;;;;;5093356;28;20692;-62
2024/01/22 03:46:03;;;;;;;5.27;4.87;;;8.40;99.90;;;;;;5101357;28;20169;-62
2024/01/22 03:48:29;;;;;;;5.40;4.90;;;8.50;99.90;;;;;;5113946;28;20196;-62
2024/01/22 03:50:55;;;;;;;7.33;4.90;;;8.40;99.90;;;;;;5100613;28;20197;-61
2024/01/22 03:53:21;;;;;;;5.10;4.70;;;8.50;99.90;;;;;;5106771;28;20192;-62
2024/01/22 03:55:47;;;;;;;5.10;4.67;;;8.50;99.90;;;;;;5099820;28;20187;-62
2024/01/22 03:58:12;;;;;;;5.10;4.60;;;8.50;99.90;;;;;;5093233;28;20201;-62
2024/01/22 04:00:39;;;;;;;5.00;4.70;;;8.50;99.90;;;;;;5093495;28;20181;-61
2024/01/22 04:03:05;;;;;;;5.33;4.93;;;8.50;99.90;;;;;;5109096;28;20200;-62
2024/01/22 04:05:31;;;;;;;5.20;4.70;;;8.50;99.90;;;;;;5113702;28;20668;-61
2024/01/22 04:07:57;;;;;;;5.23;4.83;;;8.50;99.90;;;;;;5112639;28;20292;-61
2024/01/22 04:10:24;;;;;;;5.00;4.60;;;8.60;99.90;;;;;;5111616;28;20242;-62
2024/01/22 04:12:51;;;;;;;5.27;4.77;;;8.60;99.90;;;;;;5099889;28;20607;-61
2024/01/22 04:15:17;;;;;;;5.07;4.67;;;8.60;99.90;;;;;;5094654;28;20181;-61
2024/01/22 04:17:43;;;;;;;4.97;4.50;;;8.60;99.90;;;;;;5113657;28;20215;-61
2024/01/22 04:20:09;;;;;;;5.80;4.60;;;8.60;99.90;;;;;;5113692;28;20663;-61
2024/01/22 04:22:34;;;;;;;4.60;4.30;;;8.50;99.90;;;;;;5110950;28;20376;-62
2024/01/22 04:25:00;;;;;;;4.67;4.27;;;8.50;99.90;;;;;;5113167;28;20173;-62
2024/01/22 04:27:26;;;;;;;5.93;4.80;;;8.40;99.90;;;;;;5114371;28;20226;-61
2024/01/22 04:29:52;;;;;;;5.10;4.70;;;8.30;99.90;;;;;;5113490;28;20168;-62
2024/01/22 04:32:17;;;;;;;4.87;4.43;;;8.20;99.90;;;;;;5113544;28;20180;-61
2024/01/22 04:34:43;;;;;;;4.90;4.60;;;8.10;99.90;;;;;;5117140;28;20190;-62
2024/01/22 04:37:09;;;;;;;5.13;4.73;;;8.10;99.90;;;;;;5104934;27;20213;-61
2024/01/22 04:39:36;;;;;;;5.47;4.77;;;8.10;99.90;;;;;;5097857;28;20188;-60
2024/01/22 04:42:02;;;;;;;5.50;4.67;;;8.00;99.90;;;;;;5116165;28;20531;-62
2024/01/22 04:44:28;;;;;;;4.70;4.40;;;7.90;99.90;;;;;;5109090;28;20229;-61
2024/01/22 04:46:55;;;;;;;4.83;4.40;;;7.90;99.90;;;;;;5098043;28;20223;-61
2024/01/22 04:49:21;;;;;;;5.10;4.70;;;7.80;99.90;;;;;;5096914;28;20181;-62
2024/01/22 04:51:47;;;;;;;4.77;4.47;;;7.80;99.90;;;;;;5096244;28;20658;-62
2024/01/22 04:54:13;;;;;;;4.93;4.50;;;7.80;99.90;;;;;;5096738;28;20226;-62
2024/01/22 04:56:46;;;;;;;6.20;4.40;;;7.70;99.90;;;;;;5096715;28;20181;-61
2024/01/22 04:59:13;;;;;;;4.93;4.50;;;7.70;99.90;;;;;;5097099;28;20173;-62
2024/01/22 05:01:39;;;;;;;5.53;4.50;;;7.70;99.90;;;;;;5096571;28;20207;-61
2024/01/22 05:04:05;;;;;;;4.80;4.40;;;7.60;99.90;;;;;;5096504;28;20696;-60
2024/01/22 05:06:31;;;;;;;4.83;4.43;;;7.60;99.90;;;;;;5096445;28;20177;-60
2024/01/22 05:08:57;;;;;;;5.50;4.80;;;7.60;99.90;;;;;;5096241;28;20304;-63
2024/01/22 05:11:23;;;;;;;4.70;4.37;;;7.60;99.90;;;;;;5096434;28;20180;-61
2024/01/22 05:13:53;;;;;;;4.83;4.43;;;7.60;99.90;;;;;;5096738;28;20189;-61
2024/01/22 05:16:21;;;;;;;4.53;4.30;;;7.50;99.90;;;;;;5095230;28;20181;-62
2024/01/22 05:18:48;;;;;;;4.63;4.33;;;7.50;99.90;;;;;;5096438;28;20197;-63
2024/01/22 05:21:15;;;;;;;4.63;4.33;;;7.50;99.90;;;;;;5096297;28;20553;-62
2024/01/22 05:23:41;;;;;;;4.67;4.37;;;7.50;99.90;;;;;;5096109;28;20193;-62
2024/01/22 05:26:08;;;;;;;4.63;4.33;;;7.60;99.90;;;;;;5095005;28;20173;-62
2024/01/22 05:28:34;;;;;;;4.87;4.40;;;7.50;99.90;;;;;;5096258;28;20185;-63
2024/01/22 05:31:01;;;;;;;5.07;4.37;;;7.50;99.90;;;;;;5095981;28;20185;-63
2024/01/22 05:33:27;;;;;;;4.70;4.40;;;7.50;99.90;;;;;;5097076;28;20569;-63
2024/01/22 05:35:53;;;;;;;4.33;4.13;;;7.60;99.90;;;;;;5096052;28;20184;-62
2024/01/22 05:38:19;;;;;;;4.57;4.20;;;7.60;99.90;;;;;;5095940;28;20655;-62
2024/01/22 05:40:45;;;;;;;4.73;4.43;;;7.70;99.90;;;;;;5095308;28;20610;-63
2024/01/22 05:43:11;;;;;;;4.30;4.10;;;7.60;99.90;;;;;;5095793;28;20288;-62
2024/01/22 05:45:37;;;;;;;4.40;4.10;;;7.70;99.90;;;;;;5095849;28;20306;-62
2024/01/22 05:48:03;;;;;;;4.40;4.10;;;7.60;99.90;;;;;;5095759;28;20235;-62
2024/01/22 05:50:29;;;;;;;4.50;4.20;;;7.60;99.90;;;;;;5095562;28;20615;-62
2024/01/22 05:52:55;;;;;;;4.30;4.10;;;7.70;99.90;;;;;;5096029;28;20181;-62
2024/01/22 05:55:21;;;;;;;4.37;4.17;;;7.60;99.90;;;;;;5095891;28;20633;-62
2024/01/22 05:57:47;;;;;;;4.60;4.30;;;7.60;99.90;;;;;;5095879;28;20259;-62
2024/01/22 06:00:14;;;;;;;4.50;4.30;;;7.60;99.90;;;;;;5095435;28;20185;-62
2024/01/22 06:02:40;;;;;;;4.50;4.10;;;7.50;99.90;;;;;;5095678;28;20211;-62
2024/01/22 06:05:07;;;;;;;4.87;4.00;;;7.50;99.90;;;;;;5095580;28;20178;-62
2024/01/22 06:07:33;;;;;;;4.57;4.17;;;7.50;99.90;;;;;;5095129;28;20225;-62
2024/01/22 06:09:59;;;;;;;4.20;4.00;;;7.50;99.90;;;;;;5095068;28;20197;-62
2024/01/22 06:12:28;;;;;;;4.33;4.13;;;7.50;99.90;;;;;;5095270;28;20181;-61
2024/01/22 06:14:54;;;;;;;4.30;3.83;;;7.50;99.90;;;;;;5095138;28;20177;-62
2024/01/22 06:17:20;;;;;;;4.43;4.13;;;7.60;99.90;;;;;;5094980;28;20204;-61
2024/01/22 06:19:45;;;;;;;4.33;4.10;;;7.60;99.90;;;;;;5095141;28;20181;-62
2024/01/22 06:22:12;;;;;;;4.37;4.10;;;7.70;99.90;;;;;;5095406;28;20177;-62
2024/01/22 06:24:39;;;;;;;4.40;4.10;;;7.70;99.90;;;;;;5093526;28;20177;-62
2024/01/22 06:27:05;;;;;;;4.67;4.30;;;7.70;99.90;;;;;;5095244;28;20289;-62
2024/01/22 06:29:31;;;;;;;4.27;4.03;;;7.70;99.90;;;;;;5094901;28;20269;-62
2024/01/22 06:31:58;;;;;;;4.80;4.50;;;7.70;99.90;;;;;;5095013;28;20602;-62
2024/01/22 06:34:23;;;;;;;4.80;4.50;;;7.80;99.90;;;;;;5094724;28;20551;-62
2024/01/22 06:36:49;;;;;;;4.37;4.10;;;7.80;99.90;;;;;;5094810;28;20573;-62
2024/01/22 06:39:15;;;;;;;4.80;4.50;;;7.80;99.90;;;;;;5094688;28;20682;-61
2024/01/22 06:41:41;;;;;;;4.40;4.10;;;7.90;99.90;;;;;;5094679;28;20180;-62
2024/01/22 06:44:07;;;;;;;4.50;4.20;;;7.90;99.90;;;;;;5094838;28;20197;-62
2024/01/22 06:46:33;;;;;;;5.10;4.73;;;8.00;99.90;;;;;;5094615;28;20275;-61
2024/01/22 06:48:59;;;;;;;4.63;4.33;;;8.00;99.90;;;;;;5094620;28;20698;-63
2024/01/22 06:51:25;;;;;;;4.80;4.10;;;8.10;99.90;;;;;;5094312;28;20208;-63
2024/01/22 06:53:50;;;;;;;4.57;4.17;;;8.10;99.90;;;;;;5094606;28;20181;-60
2024/01/22 06:56:16;;;;;;;4.40;4.07;;;8.10;99.90;;;;;;5094824;28;20626;-62
2024/01/22 06:58:42;;;;;;;4.13;3.93;;;8.10;99.90;;;;;;5094177;28;20193;-62
2024/01/22 07:01:08;;;;;;;4.53;4.20;;;8.10;99.90;;;;;;5094412;28;20189;-62
2024/01/22 07:03:35;;;;;;;4.93;4.30;;;8.20;99.90;;;;;;5094687;28;20560;-63
2024/01/22 07:06:01;;;;;;;4.20;4.00;;;8.20;99.90;;;;;;5092840;28;20263;-63
2024/01/22 07:08:27;;;;;;;4.30;3.90;;;8.20;99.90;;;;;;5094133;28;20197;-63
2024/01/22 07:10:54;;;;;;;4.23;4.00;;;8.30;99.90;;;;;;5094524;28;20174;-62
2024/01/22 07:13:19;;;;;;;4.30;3.90;;;8.30;99.90;;;;;;5093318;28;20177;-63
2024/01/22 07:15:45;;;;;;;4.00;3.70;;;8.30;99.90;;;;;;5094770;28;20188;-62
2024/01/22 07:18:11;;;;;;;4.13;3.93;;;8.30;99.90;;;;;;5093887;28;20201;-62
2024/01/22 07:20:37;;;;;;;4.00;3.80;;;8.30;99.90;;;;;;5093940;28;20207;-62
2024/01/22 07:23:03;;;;;;;4.10;3.90;;;8.40;99.90;;;;;;5093865;28;20200;-62
2024/01/22 07:25:31;;;;;;;4.20;4.00;;;8.30;99.90;;;;;;5093706;28;20169;-62
2024/01/22 07:27:57;;;;;;;4.30;4.00;;;8.30;99.90;;;;;;5093994;28;20719;-63
2024/01/22 07:30:23;;;;;;;4.40;4.20;;;8.30;99.90;;;;;;5093772;28;20180;-63
2024/01/22 07:32:48;;;;;;;4.33;4.03;;;8.20;99.90;;;;;;5093622;28;20169;-63
2024/01/22 07:35:15;;;;;;;4.23;4.03;;;8.20;99.90;;;;;;5093685;28;20207;-62
2024/01/22 07:37:42;;;;;;;4.47;4.13;;;8.10;99.90;;;;;;5094397;28;20201;-63
2024/01/22 07:40:11;;;;;;;4.10;3.90;;;8.20;99.90;;;;;;5093752;28;20614;-62
2024/01/22 07:42:39;;;;;;;4.50;4.20;;;8.10;99.90;;;;;;5093528;28;20249;-62
2024/01/22 07:45:06;;;;;;;4.13;3.93;;;8.10;99.90;;;;;;5093546;28;20181;-62
2024/01/22 07:47:33;;;;;;;4.30;4.00;;;8.10;99.90;;;;;;5093428;28;20666;-63
2024/01/22 07:49:59;;;;;;;4.50;4.20;;;8.10;99.90;;;;;;5093837;28;20191;-62
2024/01/22 07:52:25;;;;;;;4.27;3.97;;;8.10;99.90;;;;;;5093383;28;20683;-62
2024/01/22 07:54:51;;;;;;;4.37;4.17;;;8.20;99.90;;;;;;5093087;28;20640;-62
2024/01/22 07:57:17;;;;;;;4.20;4.00;;;8.20;99.90;;;;;;5093813;28;20224;-62
2024/01/22 07:59:43;;;;;;;4.67;4.27;;;8.20;99.90;;;;;;5092016;28;20230;-62
2024/01/22 08:02:08;;;;;;;4.10;3.90;;;8.20;99.90;;;;;;5091417;28;20185;-62
2024/01/22 08:04:37;;;;;;;4.40;4.10;;;8.30;99.90;;;;;;5093321;28;20173;-63
2024/01/22 08:07:03;;;;;;;4.40;4.10;;;8.30;99.90;;;;;;5093208;28;20654;-63
2024/01/22 08:09:30;;;;;;;4.50;4.10;;;8.40;99.90;;;;;;5093170;28;20248;-62
2024/01/22 08:11:56;;;;;;;4.20;4.00;;;8.40;99.90;;;;;;5093532;28;20165;-63
2024/01/22 08:14:22;;;;;;;4.30;4.00;;;8.40;99.90;;;;;;5092257;28;20189;-62
2024/01/22 08:16:49;;;;;;;5.80;4.20;;;8.50;99.90;;;;;;5093077;28;20204;-63
2024/01/22 08:19:15;;;;;;;4.20;3.90;;;8.50;99.90;;;;;;5093137;28;20213;-62
2024/01/22 08:21:41;;;;;;;4.40;4.00;;;8.50;99.90;;;;;;5093160;28;20184;-62
2024/01/22 08:24:07;;;;;;;3.80;3.60;;;8.60;99.90;;;;;;5093051;28;20246;-62
2024/01/22 08:26:33;;;;;;;4.30;3.90;;;8.50;99.90;;;;;;5093652;28;20173;-62
2024/01/22 08:28:59;;;;;;;4.10;3.80;;;8.60;99.90;;;;;;5093316;28;20173;-63
2024/01/22 08:31:24;;;;;;;4.20;3.90;;;8.60;99.90;;;;;;5092930;28;20185;-63
2024/01/22 08:33:50;;;;;;;4.00;3.80;;;8.60;99.90;;;;;;5093511;28;20172;-62
2024/01/22 08:36:16;;;;;;;3.97;3.77;;;8.70;99.90;;;;;;5092861;28;20666;-62
2024/01/22 08:38:42;;;;;;;3.77;3.57;;;8.80;99.90;;;;;;5092882;28;20286;-63
2024/01/22 08:41:08;;;;;;;4.00;3.80;;;8.80;99.90;;;;;;5092536;28;20177;-63
2024/01/22 08:43:35;;;;;;;3.90;3.60;;;8.90;99.90;;;;;;5093355;28;20658;-62
2024/01/22 08:46:01;;;;;;;4.13;3.83;;;8.90;99.90;;;;;;5092862;28;20174;-62
2024/01/22 08:48:27;;;;;;;4.13;3.93;;;8.90;99.90;;;;;;5092819;28;20208;-63
2024/01/22 08:50:53;;;;;;;4.17;3.87;;;9.00;99.90;;;;;;5092657;28;20189;-62
2024/01/22 08:53:19;;;;;;;4.00;3.80;;;9.00;99.90;;;;;;5093012;28;20173;-64
2024/01/22 08:55:44;;;;;;;3.90;3.70;;;9.10;99.90;;;;;;5092610;28;20596;-63
2024/01/22 08:58:10;;;;;;;4.17;3.97;;;9.20;99.90;;;;;;5092722;28;20284;-63
2024/01/22 09:00:36;;;;;;;3.80;3.60;;;9.30;99.90;;;;;;5092686;28;20268;-63
2024/01/22 09:03:02;;;;;;;3.95;3.80;;;9.20;99.90;;;;;;5092656;28;20197;-63
2024/01/22 09:05:28;;;;;;;3.70;3.50;;;9.20;99.90;;;;;;5092707;28;20180;-63
2024/01/22 09:07:54;;;;;;;3.90;3.70;;;9.40;99.90;;;;;;5091336;28;20261;-63
2024/01/22 09:10:21;;;;;;;3.90;3.70;;;9.40;99.90;;;;;;5092296;28;20256;-64
2024/01/22 09:12:48;;;;;;;3.60;3.40;;;9.40;99.90;;;;;;5092850;28;20208;-63
2024/01/22 09:15:20;;;;;;;4.00;3.80;;;9.40;99.90;;;;;;5094874;28;20169;-62
2024/01/22 09:17:46;;;;;;;3.85;3.65;;;9.40;99.90;;;;;;5096254;28;20205;-62
2024/01/22 09:20:12;;;;;;;4.80;3.88;;;9.30;99.90;;;;;;5096232;28;20182;-63
2024/01/22 09:22:38;;;;;;;3.70;3.50;;;9.40;99.90;;;;;;5096103;28;20284;-63
2024/01/22 09:25:07;;;;;;;4.10;3.80;;;9.40;99.90;;;;;;5096050;28;20291;-63
2024/01/22 09:27:33;;;;;;;4.00;3.80;;;9.40;99.90;;;;;;5096039;28;20203;-63
2024/01/22 09:29:59;;;;;;;3.83;3.63;;;9.40;99.90;;;;;;5096011;28;20685;-62
2024/01/22 09:32:28;;;;;;;3.70;3.50;;;9.40;99.90;;;;;;5096591;28;20192;-63
2024/01/22 09:34:53;;;;;;;3.70;3.50;;;9.40;99.90;;;;;;5094690;28;20181;-63
2024/01/22 09:37:19;;;;;;;3.83;3.53;;;9.40;99.90;;;;;;5095873;28;20197;-63
2024/01/22 09:39:45;;;;;;;3.80;3.60;;;9.40;99.90;;;;;;5095793;28;20635;-63
2024/01/22 09:42:14;;;;;;;3.70;3.55;;;9.40;99.90;;;;;;5094431;28;20260;-63
2024/01/22 09:44:45;;;;;;;3.60;3.40;;;9.30;99.90;;;;;;5095825;28;20648;-62
2024/01/22 09:47:12;;;;;;;3.80;3.60;;;9.30;99.90;;;;;;5095689;28;20197;-63
2024/01/22 09:49:38;;;;;;;3.70;3.50;;;9.30;99.90;;;;;;5095697;28;20169;-63
2024/01/22 09:52:04;;;;;;;4.15;3.85;;;9.30;99.90;;;;;;5095515;28;20619;-63
2024/01/22 09:54:30;;;;;;;3.83;3.60;;;9.30;99.90;;;;;;5095332;28;20187;-64
2024/01/22 09:56:59;;;;;;;3.83;3.63;;;9.40;99.90;;;;;;5095665;28;20665;-63
2024/01/22 09:59:28;;;;;;;3.90;3.60;;;9.40;99.90;;;;;;5095727;28;20272;-62
2024/01/22 10:01:55;;;;;;;4.00;3.70;;;9.40;99.90;;;;;;5095428;28;20264;-63
2024/01/22 10:04:23;;;;;;;3.87;3.57;;;9.40;99.90;;;;;;5095246;28;20197;-63
2024/01/22 10:06:50;;;;;;;4.47;3.80;;;9.50;99.90;;;;;;5095256;28;20226;-63
2024/01/22 10:09:17;;;;;;;3.80;3.60;;;9.50;99.90;;;;;;5095251;28;20305;-63
2024/01/22 10:11:43;;;;;;;5.80;4.10;;;9.50;99.90;;;;;;5095045;28;20169;-63
2024/01/22 10:14:10;;;;;;;4.03;3.73;;;9.50;99.90;;;;;;5093917;28;20184;-63
2024/01/22 10:16:38;;;;;;;5.07;3.70;;;9.60;99.90;;;;;;5095072;28;20562;-63
2024/01/22 10:19:08;;;;;;;3.97;3.70;;;9.70;99.90;;;;;;5095095;28;20181;-63
2024/01/22 10:21:35;;;;;;;4.60;3.92;;;9.80;99.90;;;;;;5095274;28;20177;-63
2024/01/22 10:24:03;;;;;;;4.72;4.22;;;9.80;99.90;;;;;;5093674;28;20745;-63
2024/01/22 10:26:30;;;;;;;5.40;3.83;;;9.90;99.90;;;;;;5094243;28;20653;-62
2024/01/22 10:29:13;;;;;;;6.65;4.15;;;10.00;99.90;;;;;;5095204;28;20162;-63
2024/01/22 10:32:00;;;;;;;4.20;3.80;;;10.10;99.90;;;;;;5094865;28;20181;-63
2024/01/22 10:34:41;;;;;;;5.30;3.95;;;10.20;99.90;;;;;;5094802;28;20185;-63
2024/01/22 10:37:08;;;;;;;9.07;3.90;;;10.40;99.90;;;;;;5095550;28;20615;-63
2024/01/22 10:39:35;;;;;;;6.38;3.83;;;10.50;99.90;;;;;;5094908;28;20184;-60
2024/01/22 10:42:11;;;;;;;7.75;3.65;;;10.50;99.90;;;;;;5094633;28;20180;-63
2024/01/22 10:44:45;;;;;;;5.43;3.70;;;10.60;99.90;;;;;;5094616;28;20255;-64
2024/01/22 10:47:11;;;;;;;5.03;3.58;;;10.70;99.90;;;;;;5094838;28;20608;-63
2024/01/22 10:49:38;;;;;;;6.18;3.80;;;10.70;99.90;;;;;;5094513;28;20650;-62
2024/01/22 10:52:04;;;;;;;7.72;3.92;;;10.70;99.90;;;;;;5094487;28;20191;-64
2024/01/22 10:54:35;;;;;;;7.00;3.83;;;10.80;99.90;;;;;;5094411;28;20177;-63
2024/01/22 10:57:03;;;;;;;7.20;4.40;;;10.90;99.90;;;;;;5094014;28;20205;-62
2024/01/22 10:59:39;;;;;;;5.07;3.95;;;11.00;99.90;;;;;;5094646;28;20177;-63
2024/01/22 11:02:06;;;;;;;7.63;3.90;;;11.00;99.90;;;;;;5094520;28;20196;-63
2024/01/22 11:04:43;;;;;;;8.10;3.95;;;11.00;99.90;;;;;;5093211;28;20235;-63
2024/01/22 11:07:10;;;;;;;4.20;3.80;;;11.10;99.90;;;;;;5094432;28;20283;-63
2024/01/22 11:09:38;;;;;;;8.00;4.72;;;11.10;99.90;;;;;;5094065;28;20531;-63
2024/01/22 11:12:13;;;;;;;9.27;3.78;;;11.10;99.90;;;;;;5093819;28;20529;-63
2024/01/22 11:14:40;;;;;;;4.20;3.83;;;11.10;99.90;;;;;;5094417;28;20161;-64
2024/01/22 11:17:09;;;;;;;7.82;4.13;;;11.10;99.90;;;;;;5093861;28;20197;-63
2024/01/22 11:19:35;;;;;;;5.07;3.90;;;11.00;99.90;;;;;;5093930;28;20173;-63
2024/01/22 11:22:12;;;;;;;6.22;4.03;;;10.90;99.90;;;;;;5093888;28;20260;-63
2024/01/22 11:24:38;;;;;;;5.03;4.13;;;11.00;99.90;;;;;;5094466;28;20192;-63
2024/01/22 11:27:06;;;;;;;7.95;4.10;;;11.00;99.90;;;;;;5093599;28;20273;-63
2024/01/22 11:29:33;;;;;;;4.90;4.00;;;11.00;99.90;;;;;;5094107;28;20242;-63
2024/01/22 11:32:28;;;;;;;12.35;4.95;;;10.90;99.90;;;;;;5093665;28;20181;-63
2024/01/22 11:34:58;;;;;;;7.55;4.32;;;11.00;99.90;;;;;;5092771;28;20179;-62
2024/01/22 11:37:49;;;;;;;5.55;4.38;;;11.00;99.90;;;;;;5093258;28;20193;-63
2024/01/22 11:40:35;;;;;;;4.93;4.25;;;11.10;99.90;;;;;;5091592;28;20192;-63
2024/01/22 11:43:01;;;;;;;7.20;4.07;;;11.10;99.90;;;;;;5093978;28;20599;-62
2024/01/22 11:45:27;;;;;;;4.80;3.80;;;11.10;99.90;;;;;;5093792;28;20207;-62
2024/01/22 11:47:52;;;;;;;5.85;3.75;;;11.20;99.90;;;;;;5092267;28;20569;-63
2024/01/22 11:50:18;;;;;;;5.10;3.85;;;11.20;99.90;;;;;;5093375;28;20568;-62
2024/01/22 11:52:44;;;;;;;4.50;3.25;;;11.20;99.90;;;;;;5093752;28;20604;-63
2024/01/22 11:55:10;;;;;;;4.07;3.65;;;11.10;99.90;;;;;;5093211;28;20271;-63
2024/01/22 11:57:37;;;;;;;4.05;3.50;;;11.10;99.90;;;;;;5093337;28;20216;-63
2024/01/22 12:00:09;;;;;;;4.32;3.55;;;11.10;99.90;;;;;;5093352;28;20200;-63
2024/01/22 12:02:36;;;;;;;5.05;3.55;;;11.10;99.90;;;;;;5093385;28;20197;-63
2024/01/22 12:05:09;;;;;;;4.40;3.53;;;11.00;99.90;;;;;;5093235;28;20222;-63
2024/01/22 12:07:45;;;;;;;4.00;3.58;;;10.90;99.90;;;;;;5093150;28;20204;-63
2024/01/22 12:10:28;;;;;;;4.43;3.50;;;10.90;99.90;;;;;;5093216;28;20554;-63
2024/01/22 12:13:08;;;;;;;4.10;3.70;;;10.90;99.90;;;;;;5093264;28;20201;-63
2024/01/22 12:15:33;;;;;;;6.35;3.53;;;10.90;99.90;;;;;;5093212;28;20160;-63
2024/01/22 12:18:00;;;;;;;6.95;3.80;;;10.80;99.90;;;;;;5093061;28;20200;-63
2024/01/22 12:20:27;;;;;;;6.38;3.50;;;10.90;99.90;;;;;;5093146;28;20199;-63
2024/01/22 12:23:00;;;;;;;5.30;3.47;;;10.90;99.90;;;;;;5093025;28;20193;-63
2024/01/22 12:25:39;;;;;;;4.07;3.60;;;10.90;99.90;;;;;;5093008;28;20649;-63
2024/01/22 12:28:12;;;;;;;3.80;3.42;;;10.90;99.90;;;;;;5093238;28;20573;-64
2024/01/22 12:30:38;;;;;;;3.70;3.35;;;10.90;99.90;;;;;;5093004;28;20279;-63
2024/01/22 12:33:04;;;;;;;7.15;3.60;;;10.90;99.90;;;;;;5092979;28;20664;-63
2024/01/22 12:35:30;;;;;;;4.00;3.47;;;10.80;99.90;;;;;;5092906;28;20177;-64
2024/01/22 12:37:56;;;;;;;4.10;3.70;;;10.70;99.90;;;;;;5091634;28;20215;-64
2024/01/22 12:40:23;;;;;;;5.43;4.07;;;10.50;99.90;;;;;;5093253;28;20558;-64
2024/01/22 12:42:57;;;;;;;5.32;3.65;;;10.40;99.90;;;;;;5092902;28;20614;-62
2024/01/22 12:45:24;;;;;;;7.38;3.65;;;10.20;99.90;;;;;;5091664;28;20650;-63
2024/01/22 12:47:50;;;;;;;5.40;3.80;;;10.00;99.90;;;;;;5092830;28;20196;-64
2024/01/22 12:50:19;;;;;;;8.40;4.82;;;9.70;99.90;;;;;;5096354;28;20181;-63
2024/01/22 12:52:46;;;;;;;10.40;4.93;;;9.20;99.90;;;;;;5096998;28;20181;-63
2024/01/22 12:55:14;;;;;;;8.88;4.57;;;8.90;99.90;;;;;;5096471;28;20169;-64